Time;durP1;ratioP1;P1;durP2;ratioP2;P2;SDS_P1;SDS_P2;PMS_P1;PMS_P2;Temp;Humidity;BMP_temperature;BMP_pressure;BME280_temperature;BME280_humidity;BME280_pressure;Samples;Min_cycle;Max_cycle;Signal;HPM_P1;HPM_P2
2023/09/16 00:00:24;;;;;;;10.80;9.73;;;;;;;21.44;59.00;98566.56;6876182;28;20437;-84
2023/09/16 00:03:46;;;;;;;10.37;9.20;;;;;;;21.36;58.86;98567.13;6877031;28;20248;-84
2023/09/16 00:07:08;;;;;;;10.90;9.57;;;;;;;20.88;60.13;98544.22;6876067;28;20216;-84
2023/09/16 00:10:29;;;;;;;12.27;9.07;;;;;;;21.07;60.12;98573.53;6875861;28;20267;-84
2023/09/16 00:13:51;;;;;;;10.33;9.27;;;;;;;21.37;59.64;98576.19;6875429;28;20735;-84
2023/09/16 00:17:13;;;;;;;11.03;9.00;;;;;;;21.46;59.18;98580.81;6877238;28;20214;-84
2023/09/16 00:20:36;;;;;;;9.90;8.97;;;;;;;21.28;59.78;98581.41;6884242;28;20553;-84
2023/09/16 00:23:57;;;;;;;12.07;9.93;;;;;;;21.42;59.13;98571.47;6885238;28;20228;-84
2023/09/16 00:27:19;;;;;;;9.73;8.83;;;;;;;21.42;59.22;98585.19;6876495;28;20210;-84
2023/09/16 00:30:44;;;;;;;9.70;8.80;;;;;;;20.77;59.51;98509.69;6867479;28;20273;-84
2023/09/16 00:34:07;;;;;;;12.67;9.70;;;;;;;20.39;62.13;98571.38;6876311;28;20251;-84
2023/09/16 00:37:29;;;;;;;11.60;9.50;;;;;;;19.97;62.55;98487.81;6876557;28;20252;-83
2023/09/16 00:40:50;;;;;;;9.97;9.07;;;;;;;20.83;61.67;98574.34;6890153;28;20291;-84
2023/09/16 00:44:12;;;;;;;11.30;9.87;;;;;;;20.71;60.92;98571.09;6885033;28;20232;-84
2023/09/16 00:47:34;;;;;;;9.87;8.87;;;;;;;21.13;60.17;98560.63;6884093;28;20212;-83
2023/09/16 00:50:57;;;;;;;9.93;8.93;;;;;;;21.04;60.23;98565.84;6883604;28;20375;-84
2023/09/16 00:54:18;;;;;;;10.03;8.67;;;;;;;21.01;60.40;98579.28;6875250;28;20209;-84
2023/09/16 00:57:41;;;;;;;8.83;8.03;;;;;;;21.14;59.92;98580.34;6881689;28;20277;-84
2023/09/16 01:01:03;;;;;;;8.97;8.07;;;;;;;21.19;59.72;98572.09;6885629;28;20303;-84
2023/09/16 01:04:25;;;;;;;9.90;8.53;;;;;;;21.16;59.69;98582.00;6882773;28;20727;-84
2023/09/16 01:07:49;;;;;;;9.93;8.77;;;;;;;20.87;60.38;98594.63;6875278;28;20701;-83
2023/09/16 01:11:10;;;;;;;9.13;8.33;;;;;;;21.23;59.29;98588.00;6869519;28;20232;-84
2023/09/16 01:14:33;;;;;;;9.60;8.60;;;;;;;21.17;59.36;98584.44;6882265;28;20605;-84
2023/09/16 01:18:01;;;;;;;8.80;8.00;;;;;;;21.16;59.05;98587.50;6881728;28;20205;-84
2023/09/16 01:21:23;;;;;;;8.57;7.67;;;;;;;21.11;59.00;98585.56;6881482;28;20307;-84
2023/09/16 01:24:53;;;;;;;14.13;8.73;;;;;;;20.90;59.00;98583.13;6869974;28;20216;-83
2023/09/16 01:28:16;;;;;;;9.10;8.20;;;;;;;20.54;59.51;98586.97;6862344;28;20294;-83
2023/09/16 01:31:38;;;;;;;9.60;8.70;;;;;;;20.67;59.78;98594.63;6874028;28;20255;-83
2023/09/16 01:35:04;;;;;;;10.97;8.80;;;;;;;20.75;59.81;98594.91;6873715;28;20839;-83
2023/09/16 01:38:25;;;;;;;11.60;7.90;;;;;;;20.78;59.64;98581.47;6866457;28;20243;-84
2023/09/16 01:41:47;;;;;;;10.10;8.47;;;;;;;20.71;59.39;98582.88;6871114;28;20237;-84
2023/09/16 01:45:11;;;;;;;10.43;8.60;;;;;;;20.44;60.42;98592.44;6871245;28;20343;-83
2023/09/16 01:48:32;;;;;;;9.63;8.37;;;;;;;20.61;59.75;98588.34;6876384;28;20208;-83
2023/09/16 01:51:54;;;;;;;9.90;9.00;;;;;;;20.56;59.53;98571.91;6880841;28;20292;-83
2023/09/16 01:55:15;;;;;;;9.70;8.70;;;;;;;20.46;59.96;98582.06;6871158;28;20236;-83
2023/09/16 01:58:37;;;;;;;8.40;7.60;;;;;;;20.44;60.33;98571.38;6877111;28;20219;-84
2023/09/16 02:02:00;;;;;;;10.40;8.37;;;;;;;20.72;59.74;98591.91;6872548;28;20229;-84
2023/09/16 02:05:21;;;;;;;9.97;9.00;;;;;;;20.71;59.09;98582.03;6884858;28;20300;-84
2023/09/16 02:08:43;;;;;;;10.10;9.10;;;;;;;20.45;59.19;98594.91;6870193;28;20635;-84
2023/09/16 02:12:05;;;;;;;10.53;8.70;;;;;;;20.32;59.96;98590.00;6883381;28;20335;-84
2023/09/16 02:15:26;;;;;;;10.03;9.07;;;;;;;19.78;60.20;98505.84;6871451;28;20687;-83
2023/09/16 02:18:49;;;;;;;9.27;8.37;;;;;;;20.55;59.53;98588.63;6869911;28;20201;-83
2023/09/16 02:22:10;;;;;;;10.90;8.67;;;;;;;20.36;60.15;98593.84;6872980;28;20314;-84
2023/09/16 02:25:33;;;;;;;11.47;8.77;;;;;;;20.38;60.39;98609.97;6858799;28;20296;-84
2023/09/16 02:28:54;;;;;;;8.83;8.03;;;;;;;20.38;60.13;98605.31;6871305;28;20280;-83
2023/09/16 02:32:16;;;;;;;10.27;9.07;;;;;;;19.96;60.93;98620.25;6873554;28;20699;-84
2023/09/16 02:35:40;;;;;;;10.33;9.33;;;;;;;19.53;62.78;98599.63;6873919;28;20208;-83
2023/09/16 02:39:03;;;;;;;9.23;8.33;;;;;;;20.13;61.71;98616.25;6865493;28;20275;-84
2023/09/16 02:42:25;;;;;;;9.77;8.80;;;;;;;20.13;61.42;98629.09;6865049;28;20232;-83
2023/09/16 02:45:46;;;;;;;9.77;8.77;;;;;;;20.24;61.65;98623.41;6872769;28;20293;-84
2023/09/16 02:49:08;;;;;;;9.90;8.50;;;;;;;20.22;61.07;98616.53;6875215;28;20752;-84
2023/09/16 02:52:31;;;;;;;13.67;9.23;;;;;;;20.04;60.96;98636.97;6865069;28;20323;-83
2023/09/16 02:55:55;;;;;;;11.90;8.80;;;;;;;19.85;60.98;98611.22;6874276;28;20691;-83
2023/09/16 02:59:16;;;;;;;9.27;8.07;;;;;;;20.18;60.30;98629.13;6869278;28;20666;-83
2023/09/16 03:02:38;;;;;;;9.33;8.50;;;;;;;20.25;60.44;98622.28;6886307;28;20233;-83
2023/09/16 03:05:59;;;;;;;8.90;8.10;;;;;;;20.39;60.31;98617.13;6874252;28;20232;-84
2023/09/16 03:09:22;;;;;;;10.10;9.10;;;;;;;20.27;59.95;98584.50;6870423;28;20686;-83
2023/09/16 03:12:44;;;;;;;10.60;8.93;;;;;;;20.26;60.12;98595.72;6877978;28;20248;-83
2023/09/16 03:16:19;;;;;;;11.33;9.50;;;;;;;20.16;60.64;98628.56;6874908;28;20255;-84
2023/09/16 03:19:40;;;;;;;9.77;8.77;;;;;;;20.05;61.03;98627.69;6879776;28;20260;-83
2023/09/16 03:23:03;;;;;;;11.33;10.13;;;;;;;19.57;62.32;98628.06;6870508;28;20225;-84
2023/09/16 03:26:26;;;;;;;11.77;9.73;;;;;;;19.22;64.03;98614.22;6890069;28;20227;-84
2023/09/16 03:29:48;;;;;;;11.17;10.17;;;;;;;19.57;63.30;98619.84;6889059;28;20251;-82
2023/09/16 03:33:09;;;;;;;10.60;9.57;;;;;;;19.93;62.71;98615.34;6880501;28;20319;-83
2023/09/16 03:36:31;;;;;;;10.27;9.10;;;;;;;19.72;61.49;98532.38;6880175;28;20224;-84
2023/09/16 03:39:52;;;;;;;9.83;8.80;;;;;;;20.18;61.35;98604.47;6876800;28;20701;-84
2023/09/16 03:43:15;;;;;;;11.00;9.97;;;;;;;19.26;61.26;98538.78;6881020;28;20489;-84
2023/09/16 03:46:37;;;;;;;10.40;9.30;;;;;;;19.37;62.12;98602.53;6889839;28;20663;-84
2023/09/16 03:49:58;;;;;;;11.90;9.80;;;;;;;19.63;62.20;98598.84;6873362;28;20244;-84
2023/09/16 03:53:25;;;;;;;10.50;9.13;;;;;;;19.78;62.11;98590.66;6888543;28;20271;-83
2023/09/16 03:56:47;;;;;;;11.00;9.90;;;;;;;19.65;61.25;98550.13;6882192;28;20235;-84
2023/09/16 04:00:12;;;;;;;12.13;9.60;;;;;;;19.71;61.99;98601.88;6880563;28;20215;-84
2023/09/16 04:03:34;;;;;;;12.73;9.37;;;;;;;19.75;61.51;98585.75;6875886;28;20312;-84
2023/09/16 04:06:56;;;;;;;12.13;9.13;;;;;;;19.63;61.92;98593.38;6888268;28;20212;-83
2023/09/16 04:10:17;;;;;;;9.87;8.97;;;;;;;19.78;61.27;98582.44;6867767;28;20639;-84
2023/09/16 04:13:39;;;;;;;10.50;9.37;;;;;;;19.65;61.64;98556.44;6889380;28;20232;-84
2023/09/16 04:17:04;;;;;;;11.33;10.23;;;;;;;19.48;62.60;98577.72;6888683;28;20255;-83
2023/09/16 04:20:25;;;;;;;11.40;10.30;;;;;;;19.01;63.86;98570.59;6878616;28;20205;-83
2023/09/16 04:23:47;;;;;;;12.80;11.60;;;;;;;19.45;63.06;98566.50;6870174;28;20259;-84
2023/09/16 04:27:08;;;;;;;11.83;10.63;;;;;;;19.25;62.84;98569.94;6887724;28;20692;-83
2023/09/16 04:30:30;;;;;;;14.27;11.47;;;;;;;19.16;63.91;98571.50;6876219;28;20295;-83
2023/09/16 04:33:53;;;;;;;11.60;10.40;;;;;;;19.35;63.79;98580.91;6883887;28;20731;-83
2023/09/16 04:37:16;;;;;;;11.17;10.07;;;;;;;19.40;62.89;98556.34;6881126;28;20208;-82
2023/09/16 04:40:38;;;;;;;14.67;13.13;;;;;;;19.59;62.82;98584.88;6880679;28;20220;-83
2023/09/16 04:44:00;;;;;;;13.37;12.13;;;;;;;19.76;62.13;98576.44;6881248;28;20229;-84
2023/09/16 04:47:22;;;;;;;11.53;10.40;;;;;;;19.75;61.78;98574.78;6876728;28;20659;-83
2023/09/16 04:50:46;;;;;;;11.47;10.27;;;;;;;19.57;62.07;98578.81;6878121;28;20298;-83
2023/09/16 04:54:08;;;;;;;11.83;10.63;;;;;;;19.54;62.17;98562.97;6870633;28;20229;-83
2023/09/16 04:57:30;;;;;;;10.93;9.73;;;;;;;19.67;61.83;98573.41;6878975;28;20659;-83
2023/09/16 05:00:51;;;;;;;14.23;12.73;;;;;;;19.66;61.82;98562.72;6881335;28;20256;-83
2023/09/16 05:04:13;;;;;;;14.13;11.93;;;;;;;19.79;61.62;98554.81;6878092;28;20233;-84
2023/09/16 05:07:36;;;;;;;11.97;10.77;;;;;;;19.57;61.86;98561.63;6891445;28;20224;-84
2023/09/16 05:10:58;;;;;;;11.53;10.20;;;;;;;19.76;61.12;98549.09;6879726;28;20786;-83
2023/09/16 05:14:19;;;;;;;12.00;9.80;;;;;;;19.68;60.44;98522.22;6877532;28;20233;-83
2023/09/16 05:17:41;;;;;;;10.70;9.57;;;;;;;19.56;61.54;98555.31;6878457;28;20717;-83
2023/09/16 05:21:03;;;;;;;11.37;10.17;;;;;;;19.35;61.68;98558.22;6869061;28;20272;-83
2023/09/16 05:24:26;;;;;;;16.03;10.40;;;;;;;19.41;62.06;98555.25;6869761;28;20201;-84
2023/09/16 05:27:47;;;;;;;10.97;9.87;;;;;;;19.51;61.96;98557.22;6877921;28;20292;-83
2023/09/16 05:31:09;;;;;;;12.00;10.80;;;;;;;19.50;61.99;98559.13;6870580;28;20615;-83
2023/09/16 05:34:30;;;;;;;12.20;10.40;;;;;;;19.58;61.93;98555.84;6887192;28;20331;-84
2023/09/16 05:37:51;;;;;;;11.90;10.27;;;;;;;19.58;61.89;98546.84;6869778;28;20254;-84
2023/09/16 05:41:14;;;;;;;11.23;10.07;;;;;;;19.82;61.49;98542.53;6877382;28;20252;-84
2023/09/16 05:44:36;;;;;;;12.13;10.83;;;;;;;19.71;61.97;98555.38;6873913;28;20216;-83
2023/09/16 05:48:01;;;;;;;11.77;10.67;;;;;;;19.73;61.64;98552.34;6887522;28;20302;-84
2023/09/16 05:51:23;;;;;;;12.33;11.10;;;;;;;19.75;61.88;98548.25;6880259;28;20224;-83
2023/09/16 05:54:46;;;;;;;13.13;11.03;;;;;;;19.60;62.16;98542.75;6876276;28;20275;-84
2023/09/16 05:58:11;;;;;;;13.37;11.97;;;;;;;19.94;62.34;98548.56;6882717;28;20216;-84
2023/09/16 06:01:33;;;;;;;13.40;11.03;;;;;;;20.41;62.33;98549.19;6889989;28;20310;-84
2023/09/16 06:04:54;;;;;;;11.33;10.27;;;;;;;21.06;60.33;98552.69;6866605;28;20678;-84
2023/09/16 06:08:16;;;;;;;12.63;11.43;;;;;;;21.74;59.20;98543.66;6864799;28;20240;-84
2023/09/16 06:11:37;;;;;;;12.00;10.90;;;;;;;21.70;58.49;98545.31;6863622;28;20399;-84
2023/09/16 06:15:00;;;;;;;11.97;10.77;;;;;;;21.82;58.98;98549.38;6865153;28;20244;-83
2023/09/16 06:18:21;;;;;;;12.23;10.10;;;;;;;22.64;57.14;98556.75;6864607;28;20289;-83
2023/09/16 06:21:43;;;;;;;11.93;10.73;;;;;;;22.54;56.37;98543.94;6865137;28;20249;-84
2023/09/16 06:25:06;;;;;;;11.40;10.30;;;;;;;22.70;56.00;98525.38;6865350;28;20242;-84
2023/09/16 06:28:27;;;;;;;11.40;10.30;;;;;;;22.63;55.09;98479.00;6866364;28;20210;-83
2023/09/16 06:31:50;;;;;;;12.27;11.07;;;;;;;23.04;55.16;98550.88;6864928;28;20248;-84
2023/09/16 06:35:12;;;;;;;11.63;10.63;;;;;;;22.39;55.58;98472.59;6865746;28;20286;-83
2023/09/16 06:38:33;;;;;;;12.40;10.53;;;;;;;23.26;55.41;98567.72;6843942;28;20341;-83
2023/09/16 06:41:55;;;;;;;13.07;9.40;;;;;;;23.66;55.41;98565.28;6841404;28;20372;-83
2023/09/16 06:45:16;;;;;;;9.93;9.03;;;;;;;24.57;51.60;98551.03;6873557;28;20365;-83
2023/09/16 06:48:39;;;;;;;10.83;8.67;;;;;;;24.16;53.12;98553.59;6867166;28;20299;-83
2023/09/16 06:52:01;;;;;;;10.13;9.23;;;;;;;24.69;51.64;98557.72;6868294;28;20260;-83
2023/09/16 06:55:22;;;;;;;10.63;9.60;;;;;;;24.63;51.80;98558.94;6872148;28;20261;-84
2023/09/16 06:58:44;;;;;;;9.73;8.73;;;;;;;24.49;52.30;98549.75;6872919;28;20256;-83
2023/09/16 07:02:05;;;;;;;10.53;9.40;;;;;;;24.81;51.74;98548.97;6871402;28;20250;-84
2023/09/16 07:05:30;;;;;;;9.50;8.70;;;;;;;25.23;50.62;98545.97;6872639;28;20289;-83
2023/09/16 07:08:51;;;;;;;9.17;8.37;;;;;;;25.10;50.77;98549.53;6872566;28;20199;-83
2023/09/16 07:12:13;;;;;;;9.67;8.20;;;;;;;26.17;49.03;98551.44;6872097;28;20331;-84
2023/09/16 07:15:35;;;;;;;9.03;7.93;;;;;;;26.04;48.60;98546.78;6872618;28;20235;-83
2023/09/16 07:18:56;;;;;;;8.80;8.00;;;;;;;26.71;47.46;98545.72;6867228;28;20255;-83
2023/09/16 07:22:20;;;;;;;8.10;7.30;;;;;;;26.98;47.29;98548.34;6846060;29;20724;-83
2023/09/16 07:25:41;;;;;;;8.97;8.07;;;;;;;27.23;47.36;98552.38;6848645;29;20241;-84
2023/09/16 07:29:03;;;;;;;7.17;6.53;;;;;;;27.99;44.40;98516.63;6868100;28;20365;-83
2023/09/16 07:32:24;;;;;;;7.90;7.10;;;;;;;27.06;46.03;98496.91;6872136;28;20275;-83
2023/09/16 07:35:47;;;;;;;7.47;6.87;;;;;;;26.93;47.39;98531.84;6872971;28;20302;-82
2023/09/16 07:39:10;;;;;;;7.20;6.50;;;;;;;26.76;47.94;98544.75;6869080;28;20197;-82
2023/09/16 07:42:35;;;;;;;7.30;6.60;;;;;;;27.10;46.82;98550.50;6870789;28;20308;-82
2023/09/16 07:45:58;;;;;;;6.90;6.30;;;;;;;27.34;46.74;98540.72;6870909;28;20251;-83
2023/09/16 07:49:19;;;;;;;8.27;6.57;;;;;;;27.20;47.20;98542.75;6891617;28;20224;-83
2023/09/16 07:52:42;;;;;;;7.47;6.77;;;;;;;27.93;44.94;98526.25;6879190;28;20226;-80
2023/09/16 07:56:05;;;;;;;6.40;5.80;;;;;;;28.52;43.93;98539.34;6866089;28;20208;-83
2023/09/16 07:59:27;;;;;;;8.00;7.20;;;;;;;28.39;42.95;98543.09;6865892;28;20213;-83
2023/09/16 08:02:48;;;;;;;6.50;5.90;;;;;;;27.80;44.13;98529.97;6865407;28;20249;-83
2023/09/16 08:06:10;;;;;;;6.70;6.00;;;;;;;28.26;44.88;98546.00;6866250;28;20303;-82
2023/09/16 08:09:32;;;;;;;6.10;5.50;;;;;;;28.68;43.07;98534.91;6866107;28;20205;-83
2023/09/16 08:12:55;;;;;;;5.43;4.93;;;;;;;28.78;42.96;98542.88;6865053;28;20334;-84
2023/09/16 08:16:17;;;;;;;6.43;5.43;;;;;;;29.73;39.52;98511.69;6865235;28;20306;-83
2023/09/16 08:19:38;;;;;;;5.43;4.93;;;;;;;30.11;40.45;98536.66;6865825;28;20690;-84
2023/09/16 08:23:00;;;;;;;5.40;4.90;;;;;;;30.25;40.35;98546.34;6865716;28;20257;-84
2023/09/16 08:26:21;;;;;;;5.70;5.30;;;;;;;30.05;40.23;98543.53;6867247;28;20269;-84
2023/09/16 08:29:44;;;;;;;5.63;5.03;;;;;;;30.16;39.90;98547.56;6866636;28;20292;-83
2023/09/16 08:33:06;;;;;;;5.43;4.93;;;;;;;29.35;41.37;98549.78;6868231;28;20249;-83
2023/09/16 08:36:27;;;;;;;5.43;5.03;;;;;;;28.87;42.29;98553.97;6868446;28;20210;-83
2023/09/16 08:39:49;;;;;;;5.67;5.20;;;;;;;28.55;43.71;98557.28;6864881;28;20285;-86
2023/09/16 08:43:17;;;;;;;6.10;5.40;;;;;;;27.67;44.23;98455.28;6864557;28;20290;-84
2023/09/16 08:46:42;;;;;;;7.47;6.63;;;;;;;26.80;47.15;98545.78;6864994;28;20194;-84
2023/09/16 08:50:07;;;;;;;5.93;5.30;;;;;;;27.65;45.86;98541.47;6848459;28;20290;-85
2023/09/16 08:53:31;;;;;;;5.63;5.00;;;;;;;29.42;42.15;98538.97;6848493;28;20727;-85
2023/09/16 08:56:52;;;;;;;5.10;4.70;;;;;;;28.21;44.10;98563.63;6866863;28;20279;-85
2023/09/16 09:00:15;;;;;;;6.10;5.47;;;;;;;28.05;45.04;98551.38;6874243;28;20672;-84
2023/09/16 09:03:38;;;;;;;5.70;5.20;;;;;;;29.16;42.99;98548.53;6865176;28;20238;-85
2023/09/16 09:07:00;;;;;;;5.47;4.53;;;;;;;29.99;40.63;98487.31;6864681;28;20265;-84
2023/09/16 09:10:22;;;;;;;6.67;4.97;;;;;;;31.10;39.81;98562.31;6854634;28;20696;-86
2023/09/16 09:13:44;;;;;;;4.67;4.27;;;;;;;31.83;38.24;98555.69;6837183;28;20303;-85
2023/09/16 09:17:08;;;;;;;4.87;4.40;;;;;;;32.29;36.80;98540.41;6852739;28;20272;-85
2023/09/16 09:20:31;;;;;;;4.73;4.33;;;;;;;31.98;37.60;98540.22;6864503;28;20341;-83
2023/09/16 09:23:53;;;;;;;5.17;4.77;;;;;;;31.64;38.00;98547.06;6862727;28;20312;-86
2023/09/16 09:27:14;;;;;;;7.10;4.80;;;;;;;31.68;38.14;98550.81;6877720;28;20219;-85
2023/09/16 09:30:36;;;;;;;5.23;4.73;;;;;;;31.60;38.63;98556.50;6874441;28;20246;-85
2023/09/16 09:33:58;;;;;;;5.43;4.93;;;;;;;31.11;39.22;98555.56;6878575;28;20237;-85
2023/09/16 09:37:21;;;;;;;4.40;4.00;;;;;;;31.40;39.01;98544.28;6871036;28;20344;-85
2023/09/16 09:40:58;;;;;;;6.23;4.57;;;;;;;31.54;38.70;98533.59;6872361;28;20346;-83
2023/09/16 09:44:20;;;;;;;4.90;4.50;;;;;;;31.73;38.15;98553.38;6873178;28;20217;-84
2023/09/16 09:47:42;;;;;;;5.07;4.30;;;;;;;30.72;40.80;98549.75;6872010;28;20213;-85
2023/09/16 09:51:04;;;;;;;5.17;4.77;;;;;;;30.29;40.80;98541.75;6864485;28;20218;-86
2023/09/16 09:54:27;;;;;;;4.60;4.30;;;;;;;30.84;39.77;98519.19;6874994;28;20708;-84
2023/09/16 09:57:50;;;;;;;7.13;4.33;;;;;;;32.49;37.01;98540.25;6859476;28;20247;-84
2023/09/16 10:01:11;;;;;;;4.73;4.33;;;;;;;31.52;37.29;98465.41;6886618;28;20653;-83
2023/09/16 10:04:33;;;;;;;4.40;3.83;;;;;;;32.12;37.26;98527.53;6878057;28;20645;-84
2023/09/16 10:07:55;;;;;;;4.73;4.23;;;;;;;31.66;37.14;98536.38;6873098;28;20695;-84
2023/09/16 10:11:20;;;;;;;4.70;4.30;;;;;;;31.56;36.22;98536.88;6874560;28;21628;-85
2023/09/16 10:14:41;;;;;;;4.30;4.00;;;;;;;32.06;36.85;98528.94;6873072;28;20249;-84
2023/09/16 10:18:04;;;;;;;5.03;4.30;;;;;;;31.24;37.71;98528.59;6882310;28;20313;-85
2023/09/16 10:21:26;;;;;;;4.40;4.10;;;;;;;31.04;37.04;98527.47;6868753;28;20313;-84
2023/09/16 10:24:48;;;;;;;4.17;3.87;;;;;;;31.19;36.10;98514.88;6874479;28;20245;-84
2023/09/16 10:28:12;;;;;;;5.40;3.70;;;;;;;31.87;34.28;98516.75;6876530;28;20206;-84
2023/09/16 10:31:34;;;;;;;3.13;2.90;;;;;;;30.57;33.97;98530.88;6872022;28;20226;-84
2023/09/16 10:34:56;;;;;;;2.90;2.70;;;;;;;30.97;33.04;98529.19;6869523;28;20243;-85
2023/09/16 10:38:18;;;;;;;3.30;2.93;;;;;;;31.25;32.39;98530.22;6870162;28;20260;-84
2023/09/16 10:41:39;;;;;;;3.87;3.00;;;;;;;31.39;31.72;98475.78;6877159;28;20373;-84
2023/09/16 10:45:03;;;;;;;2.83;2.63;;;;;;;30.88;33.65;98517.31;6875479;28;20295;-85
2023/09/16 10:48:25;;;;;;;3.17;2.87;;;;;;;31.57;33.16;98498.63;6861746;28;20333;-86
2023/09/16 10:51:47;;;;;;;2.70;2.50;;;;;;;32.41;31.22;98513.28;6860908;28;20226;-84
2023/09/16 10:55:14;;;;;;;2.60;2.40;;;;;;;31.31;31.90;98514.91;6862026;28;20246;-84
2023/09/16 10:58:42;;;;;;;2.80;2.43;;;;;;;32.00;30.76;98518.34;6862922;28;20194;-85
2023/09/16 11:02:09;;;;;;;2.60;2.40;;;;;;;32.04;30.51;98516.50;6862108;28;20244;-86
2023/09/16 11:05:31;;;;;;;2.30;2.10;;;;;;;32.43;29.49;98519.31;6861860;28;20238;-85
2023/09/16 11:08:52;;;;;;;2.90;2.00;;;;;;;33.68;27.15;98501.63;6862300;28;20298;-85
2023/09/16 11:12:14;;;;;;;2.70;2.50;;;;;;;33.69;28.38;98486.47;6861399;28;20274;-87
2023/09/16 11:15:36;;;;;;;3.70;2.63;;;;;;;34.21;28.28;98503.69;6862831;28;20235;-84
2023/09/16 11:18:59;;;;;;;2.80;2.60;;;;;;;33.74;26.90;98491.78;6861867;28;20302;-85
2023/09/16 11:22:20;;;;;;;1.87;1.77;;;;;;;31.25;29.46;98516.28;6861893;28;20305;-85
2023/09/16 11:25:43;;;;;;;2.90;2.20;;;;;;;32.98;29.20;98516.56;6864929;28;20691;-84
2023/09/16 11:29:16;;;;;;;2.30;2.10;;;;;;;32.67;27.52;98401.16;6862096;28;20213;-86
2023/09/16 11:32:40;;;;;;;2.17;2.07;;;;;;;33.28;26.86;98447.91;6867565;28;20241;-85
2023/09/16 11:36:12;;;;;;;2.20;2.10;;;;;;;33.64;26.98;98495.13;6877305;28;20657;-87
2023/09/16 11:39:34;;;;;;;2.63;2.43;;;;;;;32.86;28.49;98494.28;6865978;28;20262;-85
2023/09/16 11:42:56;;;;;;;2.50;2.30;;;;;;;30.88;31.77;98487.50;6874403;28;20233;-85
2023/09/16 11:46:18;;;;;;;2.40;2.20;;;;;;;32.48;28.68;98487.56;6867266;28;20214;-85
2023/09/16 11:49:40;;;;;;;2.27;2.07;;;;;;;33.01;27.71;98475.91;6859871;28;20570;-85
2023/09/16 11:53:03;;;;;;;2.20;2.10;;;;;;;32.82;27.78;98481.38;6869673;28;20605;-85
2023/09/16 11:56:26;;;;;;;2.07;1.93;;;;;;;33.86;26.74;98466.53;6870235;28;20328;-84
2023/09/16 11:59:48;;;;;;;1.80;1.70;;;;;;;34.11;24.80;98470.69;6867460;28;20207;-86
2023/09/16 12:03:10;;;;;;;1.90;1.60;;;;;;;33.00;26.33;98446.34;6864590;28;20585;-86
2023/09/16 12:06:34;;;;;;;1.80;1.70;;;;;;;32.99;26.46;98465.09;6865033;28;20710;-85
2023/09/16 12:09:57;;;;;;;2.00;1.90;;;;;;;33.47;26.46;98459.16;6865866;28;20216;-85
2023/09/16 12:13:27;;;;;;;2.07;1.97;;;;;;;34.16;26.65;98445.19;6864958;28;20238;-85
2023/09/16 12:16:52;;;;;;;2.30;2.13;;;;;;;33.78;26.99;98441.53;6865614;28;20553;-85
2023/09/16 12:20:13;;;;;;;2.30;2.10;;;;;;;33.18;27.99;98453.19;6866029;28;20663;-85
2023/09/16 12:23:35;;;;;;;2.13;2.00;;;;;;;33.90;26.50;98425.44;6865058;28;20267;-86
2023/09/16 12:26:58;;;;;;;1.67;1.57;;;;;;;33.44;25.20;98401.16;6862022;28;20215;-85
2023/09/16 12:30:19;;;;;;;1.70;1.60;;;;;;;34.47;25.19;98424.66;6864507;28;20246;-86
2023/09/16 12:33:43;;;;;;;2.80;2.10;;;;;;;34.57;25.33;98432.44;6865124;28;20323;-86
2023/09/16 12:37:05;;;;;;;2.60;1.90;;;;;;;34.79;25.57;98435.31;6865064;28;20604;-86
2023/09/16 12:40:26;;;;;;;2.30;2.10;;;;;;;35.28;24.77;98438.22;6862675;28;20692;-86
2023/09/16 12:43:50;;;;;;;1.90;1.80;;;;;;;33.52;25.52;98352.63;6855278;28;20268;-86
2023/09/16 12:47:12;;;;;;;1.80;1.70;;;;;;;34.51;25.08;98433.94;6864752;28;20209;-85
2023/09/16 12:50:33;;;;;;;2.13;2.00;;;;;;;33.92;26.29;98427.88;6863504;28;20370;-86
2023/09/16 12:53:55;;;;;;;2.87;2.00;;;;;;;33.24;27.13;98426.59;6864619;28;20323;-84
2023/09/16 12:57:19;;;;;;;2.10;2.00;;;;;;;34.42;27.06;98422.16;6864534;28;20718;-86
2023/09/16 13:00:42;;;;;;;2.00;1.90;;;;;;;34.40;25.39;98413.31;6863649;28;20340;-86
2023/09/16 13:04:06;;;;;;;2.23;2.03;;;;;;;34.34;25.16;98410.00;6864981;28;20235;-85
2023/09/16 13:07:28;;;;;;;2.77;2.07;;;;;;;35.11;25.73;98391.03;6864393;28;20213;-86
2023/09/16 13:10:50;;;;;;;2.20;2.10;;;;;;;34.96;25.70;98394.78;6863609;28;20221;-85
2023/09/16 13:14:12;;;;;;;2.03;1.93;;;;;;;35.44;25.89;98397.59;6863570;28;20399;-86
2023/09/16 13:17:35;;;;;;;3.30;2.43;;;;;;;34.46;27.46;98386.63;6864556;28;20344;-85
2023/09/16 13:20:57;;;;;;;2.37;2.17;;;;;;;34.10;27.78;98387.91;6863686;28;20213;-86
2023/09/16 13:24:19;;;;;;;2.17;2.07;;;;;;;34.19;26.72;98391.25;6864233;28;20745;-87
2023/09/16 13:27:42;;;;;;;2.53;2.33;;;;;;;35.22;26.65;98386.41;6864459;28;20268;-86
2023/09/16 13:31:04;;;;;;;2.20;2.10;;;;;;;35.32;26.09;98392.22;6863222;28;20329;-86
2023/09/16 13:34:40;;;;;;;2.70;2.50;;;;;;;35.22;26.55;98390.03;6864011;28;20237;-85
2023/09/16 13:38:02;;;;;;;2.67;2.43;;;;;;;35.08;27.11;98397.41;6865269;28;20208;-87
2023/09/16 13:41:24;;;;;;;2.70;2.50;;;;;;;34.99;27.61;98392.06;6863631;28;20260;-86
2023/09/16 13:44:46;;;;;;;2.83;2.63;;;;;;;35.04;27.18;98386.13;6860298;28;20202;-86
2023/09/16 13:48:12;;;;;;;2.73;2.53;;;;;;;33.86;28.70;98392.97;6864004;28;20205;-86
2023/09/16 13:51:35;;;;;;;2.50;2.30;;;;;;;34.00;28.11;98382.88;6863468;28;20240;-86
2023/09/16 13:54:57;;;;;;;3.30;2.27;;;;;;;34.42;27.50;98371.78;6862308;28;20237;-86
2023/09/16 13:58:18;;;;;;;2.90;2.30;;;;;;;34.04;28.34;98377.34;6863060;28;20244;-86
2023/09/16 14:01:40;;;;;;;2.60;2.20;;;;;;;35.10;27.37;98379.03;6862365;28;20232;-86
2023/09/16 14:05:01;;;;;;;2.37;2.27;;;;;;;34.35;27.36;98378.03;6863598;28;20344;-85
2023/09/16 14:08:24;;;;;;;2.40;2.20;;;;;;;33.47;28.07;98327.75;6863600;28;20247;-86
2023/09/16 14:11:46;;;;;;;3.43;2.10;;;;;;;33.23;28.45;98305.63;6862563;28;20278;-87
2023/09/16 14:15:07;;;;;;;2.20;2.10;;;;;;;33.72;27.43;98385.03;6861974;28;20720;-86
2023/09/16 14:18:29;;;;;;;2.30;2.20;;;;;;;34.28;27.48;98389.09;6863193;28;20699;-86
2023/09/16 14:21:51;;;;;;;2.53;2.20;;;;;;;33.60;27.97;98382.38;6861894;28;20248;-86
2023/09/16 14:25:14;;;;;;;3.43;2.40;;;;;;;32.91;28.28;98264.94;6862186;28;20235;-86
2023/09/16 14:28:36;;;;;;;1.97;1.87;;;;;;;34.19;28.19;98388.47;6862679;28;20212;-86
2023/09/16 14:31:58;;;;;;;2.23;2.13;;;;;;;34.56;26.80;98381.25;6861591;28;20656;-86
2023/09/16 14:35:19;;;;;;;2.40;2.20;;;;;;;33.40;28.47;98332.38;6862385;28;20238;-86
2023/09/16 14:38:41;;;;;;;2.63;2.43;;;;;;;33.26;29.11;98348.81;6862942;28;20223;-86
2023/09/16 14:42:04;;;;;;;2.70;2.50;;;;;;;33.21;29.01;98304.34;6859658;28;20363;-87
2023/09/16 14:45:26;;;;;;;2.50;2.30;;;;;;;33.49;28.17;98277.06;6861932;28;20677;-86
2023/09/16 14:48:47;;;;;;;2.23;2.13;;;;;;;34.06;28.39;98363.78;6861907;28;20291;-86
2023/09/16 14:52:09;;;;;;;3.27;2.30;;;;;;;33.53;27.80;98309.50;6859942;28;20236;-87
2023/09/16 14:55:32;;;;;;;2.07;1.97;;;;;;;34.48;26.95;98362.69;6861745;28;20240;-87
2023/09/16 14:58:55;;;;;;;2.50;2.30;;;;;;;32.96;28.40;98281.41;6862325;28;20231;-86
2023/09/16 15:02:17;;;;;;;2.40;2.30;;;;;;;33.31;27.99;98301.81;6864547;28;20243;-86
2023/09/16 15:05:39;;;;;;;3.77;2.33;;;;;;;34.15;28.02;98370.81;6863721;28;20215;-86
2023/09/16 15:09:00;;;;;;;3.83;2.27;;;;;;;33.59;28.33;98284.84;6861679;28;20584;-86
2023/09/16 15:12:22;;;;;;;2.50;2.30;;;;;;;34.39;27.98;98376.13;6862062;28;20735;-86
2023/09/16 15:15:45;;;;;;;2.63;2.30;;;;;;;33.08;29.28;98370.72;6867147;28;20235;-86
2023/09/16 15:19:07;;;;;;;2.80;2.43;;;;;;;33.38;28.36;98307.56;6867022;28;20212;-86
2023/09/16 15:22:30;;;;;;;2.40;2.20;;;;;;;32.50;29.08;98307.41;6866214;28;20263;-86
2023/09/16 15:25:52;;;;;;;2.97;2.67;;;;;;;33.56;28.83;98342.34;6867323;28;20244;-87
2023/09/16 15:29:14;;;;;;;2.67;2.47;;;;;;;34.08;28.41;98378.25;6866107;28;20216;-86
2023/09/16 15:32:37;;;;;;;3.20;2.47;;;;;;;34.29;28.30;98393.50;6865786;28;20230;-88
2023/09/16 15:35:58;;;;;;;2.70;2.50;;;;;;;33.64;28.63;98302.16;6869642;28;20231;-86
2023/09/16 15:39:20;;;;;;;2.70;2.50;;;;;;;33.76;28.81;98379.50;6867016;28;20729;-86
2023/09/16 15:42:44;;;;;;;2.70;2.50;;;;;;;34.15;28.31;98383.97;6866763;28;20240;-86
2023/09/16 15:46:06;;;;;;;2.80;2.60;;;;;;;33.25;28.89;98377.94;6866548;28;20219;-86